Portada
METAR-TAF:

METAR-TAF

Aeroports :

Kosrae, Micronèsia

latitud: 05-21N, longitud: 162-57E, altitud: 3 m

Observació

L'informe es va fer fa 9 hores i 3 minuts, a les 22:50 UTC
Vent 12 kt del Est
Temperatura 27°C
Humitat 84%
Pressió 1010 hPa
Visibilitat: 16.1 km
Cel ennuvolat a una alçada de 1500 ft
Cel ennuvolat a una alçada de 13000 ft
Cel cobert a una alçada de 30000 ft
xàfecs de pluja

METAR: PTSA 252250Z 09012KT 10SM -SHRA BKN015 BKN130 OVC300 27/24 A2982 RMK LAST

Hora: 18:53 (07:53 UTC)

Pronòstic

L'informe es va fer fa 8 hores i 21 minuts, a les 23:32 UTC
Pronòstic vàlid del 26 a les 00 UTC al 26 a les 24 UTC
Vent 13 kt del Est/Nord-Est
Visibilitat: 10 km
Núvols disperses a una alçada de 1800 ft
Cel ennuvolat a una alçada de 13000 ft
xàfecs en les proximitats
Temporalment
l' 26 a les 00 UTC al 26 a les 04 UTC
Visibilitat: 3.2 km
Cel ennuvolat a una alçada de 1700 ft
xàfecs de pluja

TAF: PTSA 252332Z 2600/2624 06013KT P6SM VCSH SCT018 BKN130 TEMPO 2600/2604 2SM SHRA BKN017

Observacions i pronòstics meteorològics de més de 4000 aeroports (METAR i TAF).

Les estacions disponibles són els punts grocs i vermells al mapa.

Posi el ratolí al punt desitjat per veure el nom de l'estació.

Feu clic per veure les observacions i els pronòstics meteorològics.

Per canviar el mapa: feu clic els botons verds amb una creu de color negre per apropar; al botó verd amb un guió per allunyar la imatge; o en les fletxes verdes per a mapes adjacents.


METAR-TAF: